Time;durP1;ratioP1;P1;durP2;ratioP2;P2;SDS_P1;SDS_P2;PMS_P1;PMS_P2;Temp;Humidity;BMP_temperature;BMP_pressure;BME280_temperature;BME280_humidity;BME280_pressure;Samples;Min_cycle;Max_cycle;Signal;HPM_P1;HPM_P2
2022/08/29 00:00:23;;;;;;;4.57;1.30;;;15.20;99.90;;;;;;5053679;28;20164;-44
2022/08/29 00:02:51;;;;;;;2.40;1.20;;;15.20;99.90;;;;;;5053089;28;20210;-44
2022/08/29 00:05:20;;;;;;;2.07;1.13;;;15.20;99.90;;;;;;5053024;28;20179;-44
2022/08/29 00:07:45;;;;;;;2.23;1.20;;;15.10;99.90;;;;;;5053036;28;20172;-44
2022/08/29 00:10:11;;;;;;;2.77;1.30;;;15.10;99.90;;;;;;5052964;28;20260;-45
2022/08/29 00:12:37;;;;;;;4.30;1.20;;;15.10;99.90;;;;;;5053071;28;20200;-45
2022/08/29 00:15:05;;;;;;;2.73;1.30;;;15.00;99.90;;;;;;5052741;28;20211;-43
2022/08/29 00:17:31;;;;;;;3.37;1.10;;;15.00;99.90;;;;;;5053260;28;20613;-43
2022/08/29 00:19:57;;;;;;;3.80;1.10;;;15.00;99.90;;;;;;5053305;28;20211;-42
2022/08/29 00:22:23;;;;;;;5.93;1.20;;;15.00;99.90;;;;;;5053052;28;20200;-43
2022/08/29 00:24:48;;;;;;;3.70;1.30;;;14.90;99.90;;;;;;5057686;28;20263;-44
2022/08/29 00:27:14;;;;;;;2.73;1.37;;;14.90;99.90;;;;;;5056922;28;20183;-44
2022/08/29 00:29:40;;;;;;;3.13;1.20;;;14.90;99.90;;;;;;5057463;28;20182;-43
2022/08/29 00:32:05;;;;;;;4.63;1.73;;;14.90;99.90;;;;;;5057883;28;20733;-43
2022/08/29 00:34:31;;;;;;;6.00;1.20;;;14.90;99.90;;;;;;5057724;28;20272;-44
2022/08/29 00:36:57;;;;;;;2.83;1.20;;;14.80;99.90;;;;;;5062883;28;20172;-44
2022/08/29 00:39:22;;;;;;;3.43;1.20;;;14.80;99.90;;;;;;5063384;28;20234;-45
2022/08/29 00:41:48;;;;;;;3.43;1.23;;;14.90;99.90;;;;;;5061825;28;20605;-44
2022/08/29 00:44:14;;;;;;;3.03;1.27;;;14.80;99.90;;;;;;5057079;28;20172;-42
2022/08/29 00:46:45;;;;;;;3.43;1.20;;;14.80;99.90;;;;;;5056894;28;20184;-43
2022/08/29 00:49:23;;;;;;;2.87;1.60;;;14.80;99.90;;;;;;5057296;28;20251;-44
2022/08/29 00:51:50;;;;;;;3.50;1.47;;;14.80;99.90;;;;;;5056451;28;20409;-44
2022/08/29 00:54:16;;;;;;;2.10;1.23;;;14.70;99.90;;;;;;5056616;28;20179;-44
2022/08/29 00:56:44;;;;;;;3.43;1.40;;;14.70;99.90;;;;;;5056108;28;20176;-39
2022/08/29 00:59:15;;;;;;;2.60;1.33;;;14.60;99.90;;;;;;5056294;28;20658;-41
2022/08/29 01:01:41;;;;;;;2.40;1.40;;;14.60;99.90;;;;;;5056004;28;20199;-38
2022/08/29 01:04:09;;;;;;;1.37;1.20;;;14.50;99.90;;;;;;5056014;28;20662;-40
2022/08/29 01:06:36;;;;;;;2.17;1.10;;;14.40;99.90;;;;;;5056171;28;20179;-41
2022/08/29 01:09:03;;;;;;;2.77;0.80;;;14.30;99.90;;;;;;5055823;28;20588;-39
2022/08/29 01:14:16;;;;;;;4.80;1.00;;;14.10;99.90;;;;;;5055807;28;20249;-40
2022/08/29 01:16:44;;;;;;;1.97;1.20;;;14.00;99.90;;;;;;5055649;28;20257;-40
2022/08/29 01:19:40;;;;;;;2.80;1.33;;;14.00;99.90;;;;;;5055855;28;20172;-39
2022/08/29 01:22:32;;;;;;;4.73;1.40;;;13.80;99.90;;;;;;5055679;28;20197;-40
2022/08/29 01:24:58;;;;;;;1.80;1.33;;;13.80;99.90;;;;;;5055812;28;20179;-41
2022/08/29 01:27:29;;;;;;;6.00;1.20;;;13.70;99.90;;;;;;5055761;28;20541;-39
2022/08/29 01:29:55;;;;;;;2.83;1.23;;;13.60;99.90;;;;;;5055510;28;20177;-40
2022/08/29 01:32:23;;;;;;;9.00;1.20;;;13.50;99.90;;;;;;5055338;28;20200;-40
2022/08/29 01:34:48;;;;;;;2.67;1.23;;;13.50;99.90;;;;;;5054324;28;20684;-40
2022/08/29 01:37:15;;;;;;;2.63;1.17;;;13.40;99.90;;;;;;5055555;28;20202;-40
2022/08/29 01:39:43;;;;;;;2.37;1.20;;;13.40;99.90;;;;;;5056263;28;20172;-39
2022/08/29 01:42:12;;;;;;;1.80;1.30;;;13.30;99.90;;;;;;5056419;28;20569;-40
2022/08/29 01:44:39;;;;;;;1.67;1.20;;;13.20;99.90;;;;;;5055547;28;20727;-39
2022/08/29 01:47:06;;;;;;;3.57;1.33;;;13.20;99.90;;;;;;5055172;28;20176;-38
2022/08/29 01:49:35;;;;;;;2.20;1.20;;;13.10;99.90;;;;;;5055379;28;20181;-41
2022/08/29 01:52:01;;;;;;;8.37;1.30;;;13.10;99.90;;;;;;5054950;28;20215;-39
2022/08/29 01:54:29;;;;;;;2.60;1.23;;;13.10;99.90;;;;;;5054924;28;20209;-41
2022/08/29 01:56:54;;;;;;;1.30;0.93;;;13.00;99.90;;;;;;5037107;28;20176;-39
2022/08/29 01:59:25;;;;;;;1.80;0.97;;;13.00;99.90;;;;;;5054901;28;20199;-40
2022/08/29 02:02:04;;;;;;;3.03;1.13;;;13.00;99.90;;;;;;5054911;28;20191;-39
2022/08/29 02:04:30;;;;;;;4.17;1.30;;;12.90;99.90;;;;;;5054738;28;20188;-39
2022/08/29 02:06:57;;;;;;;3.20;1.10;;;12.80;99.90;;;;;;5054997;28;20510;-40
2022/08/29 02:09:24;;;;;;;1.33;0.93;;;12.80;99.90;;;;;;5054996;28;20549;-38
2022/08/29 02:11:49;;;;;;;1.90;1.20;;;12.70;99.90;;;;;;5054677;28;20212;-40
2022/08/29 02:14:15;;;;;;;3.90;1.97;;;12.60;99.90;;;;;;5054853;28;20181;-41
2022/08/29 02:16:41;;;;;;;3.30;1.20;;;12.60;99.90;;;;;;5054527;28;20551;-40
2022/08/29 02:19:07;;;;;;;2.20;1.30;;;12.50;99.90;;;;;;5036680;28;20237;-41
2022/08/29 02:21:32;;;;;;;4.13;1.17;;;12.50;99.90;;;;;;5054495;28;20660;-41
2022/08/29 02:24:00;;;;;;;5.00;1.50;;;12.50;99.90;;;;;;5054505;28;20188;-40
2022/08/29 02:26:26;;;;;;;2.17;1.20;;;12.40;99.90;;;;;;5054284;28;20199;-44
2022/08/29 02:28:52;;;;;;;3.17;1.50;;;12.50;99.90;;;;;;5054972;28;20180;-42
2022/08/29 02:31:20;;;;;;;3.73;1.53;;;12.50;99.90;;;;;;5054788;28;20277;-44
2022/08/29 02:33:46;;;;;;;4.03;1.40;;;12.60;99.90;;;;;;5054349;28;20253;-44
2022/08/29 02:36:12;;;;;;;2.43;1.67;;;12.70;99.90;;;;;;5054212;28;20694;-44
2022/08/29 02:38:38;;;;;;;3.27;1.63;;;12.70;99.90;;;;;;5054307;28;20259;-43
2022/08/29 02:41:04;;;;;;;4.43;1.17;;;12.60;99.90;;;;;;5054070;28;20726;-44
2022/08/29 02:43:30;;;;;;;2.33;1.40;;;12.70;99.90;;;;;;5054171;28;20543;-43
2022/08/29 02:45:56;;;;;;;4.20;1.63;;;12.70;99.90;;;;;;5054164;28;20183;-44
2022/08/29 02:48:22;;;;;;;2.30;1.60;;;12.70;99.90;;;;;;5054297;28;20184;-44
2022/08/29 02:50:52;;;;;;;4.43;1.90;;;12.70;99.90;;;;;;5054465;28;20212;-44
2022/08/29 02:53:21;;;;;;;5.13;1.63;;;12.70;99.90;;;;;;5054291;28;20173;-43
2022/08/29 02:55:47;;;;;;;5.07;1.67;;;12.70;99.90;;;;;;5053877;28;20204;-44
2022/08/29 02:58:14;;;;;;;4.60;1.40;;;12.70;99.90;;;;;;5054434;28;20184;-41
2022/08/29 03:00:41;;;;;;;2.57;1.60;;;12.60;99.90;;;;;;5055093;28;20184;-41
2022/08/29 03:03:07;;;;;;;5.00;1.47;;;12.60;99.90;;;;;;5054576;28;20667;-41
2022/08/29 03:05:35;;;;;;;3.53;1.80;;;12.70;99.90;;;;;;5056473;28;20212;-41
2022/08/29 03:08:04;;;;;;;3.63;1.90;;;12.60;99.90;;;;;;5055706;28;20241;-40
2022/08/29 03:10:30;;;;;;;5.07;1.40;;;12.60;99.90;;;;;;5036497;28;20189;-38
2022/08/29 03:12:56;;;;;;;3.13;1.57;;;12.60;99.90;;;;;;5054001;28;20205;-40
2022/08/29 03:15:22;;;;;;;2.73;1.50;;;12.60;99.90;;;;;;5053503;28;20619;-40
2022/08/29 03:17:47;;;;;;;4.87;1.70;;;12.60;99.90;;;;;;5053570;28;20200;-39
2022/08/29 03:20:16;;;;;;;7.03;2.10;;;12.60;99.90;;;;;;5053543;28;20193;-38
2022/08/29 03:22:43;;;;;;;5.17;1.67;;;12.50;99.90;;;;;;5053668;28;20192;-38
2022/08/29 03:25:11;;;;;;;2.27;1.50;;;12.50;99.90;;;;;;5053418;28;20259;-39
2022/08/29 03:27:37;;;;;;;4.60;1.93;;;12.50;99.90;;;;;;5035533;28;20184;-39
2022/08/29 03:30:05;;;;;;;2.73;1.93;;;12.50;99.90;;;;;;5053588;28;20218;-39
2022/08/29 03:32:30;;;;;;;3.57;1.80;;;12.40;99.90;;;;;;5053146;28;20200;-40
2022/08/29 03:34:56;;;;;;;2.93;1.50;;;12.40;99.90;;;;;;5053192;28;20250;-40
2022/08/29 03:37:21;;;;;;;8.57;2.20;;;12.40;99.90;;;;;;5053218;28;20180;-39
2022/08/29 03:39:47;;;;;;;5.43;1.67;;;12.40;99.90;;;;;;5053204;28;20187;-40
2022/08/29 03:42:13;;;;;;;3.73;2.07;;;12.30;99.90;;;;;;5053446;28;20192;-40
2022/08/29 03:44:40;;;;;;;4.63;2.10;;;12.30;99.90;;;;;;5053157;28;20267;-41
2022/08/29 03:47:06;;;;;;;4.50;2.13;;;12.30;99.90;;;;;;5053241;28;20169;-41
2022/08/29 03:49:33;;;;;;;6.07;2.20;;;12.30;99.90;;;;;;5053173;28;20176;-40
2022/08/29 03:51:59;;;;;;;4.93;1.70;;;12.20;99.90;;;;;;5053358;28;20335;-41
2022/08/29 03:54:26;;;;;;;4.80;1.97;;;12.20;99.90;;;;;;5053480;28;20195;-40
2022/08/29 03:56:52;;;;;;;6.90;2.03;;;12.20;99.90;;;;;;5053409;28;20257;-40
2022/08/29 03:59:19;;;;;;;3.57;1.90;;;12.20;99.90;;;;;;5057610;28;20211;-41
2022/08/29 04:01:48;;;;;;;3.73;1.70;;;12.20;99.90;;;;;;5058168;28;20188;-40
2022/08/29 04:07:00;;;;;;;7.43;2.20;;;12.10;99.90;;;;;;5057519;28;20377;-41
2022/08/29 04:09:25;;;;;;;5.43;2.33;;;12.10;99.90;;;;;;5057868;28;20177;-41
2022/08/29 04:11:51;;;;;;;4.63;1.73;;;12.10;99.90;;;;;;5058550;28;20200;-41
2022/08/29 04:14:19;;;;;;;6.70;2.20;;;12.10;99.90;;;;;;5059567;28;20643;-40
2022/08/29 04:16:49;;;;;;;4.60;1.90;;;12.00;99.90;;;;;;5058443;28;20216;-41
2022/08/29 04:19:16;;;;;;;5.20;2.13;;;12.00;99.90;;;;;;5057322;28;20172;-40
2022/08/29 04:21:43;;;;;;;4.70;1.90;;;12.00;99.90;;;;;;5056961;28;20192;-39
2022/08/29 04:24:09;;;;;;;4.17;2.10;;;12.00;99.90;;;;;;5057126;28;20184;-38
2022/08/29 04:26:35;;;;;;;2.80;1.77;;;12.00;99.90;;;;;;5056836;28;20180;-41
2022/08/29 04:29:00;;;;;;;4.47;2.13;;;12.00;99.90;;;;;;5057740;28;20648;-40
2022/08/29 04:31:26;;;;;;;6.87;2.33;;;12.00;99.90;;;;;;5057191;28;20204;-40
2022/08/29 04:33:52;;;;;;;3.03;1.70;;;12.00;99.90;;;;;;5057121;28;20180;-40
2022/08/29 04:36:18;;;;;;;3.27;1.90;;;12.00;99.90;;;;;;5056646;28;20237;-39
2022/08/29 04:38:43;;;;;;;3.30;1.80;;;12.00;99.90;;;;;;5056522;28;20203;-40
2022/08/29 04:41:14;;;;;;;4.83;1.93;;;12.00;99.90;;;;;;5056671;28;20196;-41
2022/08/29 04:43:44;;;;;;;4.57;2.23;;;12.00;99.90;;;;;;5057132;28;20161;-40
2022/08/29 04:46:13;;;;;;;4.73;2.40;;;12.00;99.90;;;;;;5056494;28;20172;-40
2022/08/29 04:48:38;;;;;;;5.37;2.40;;;12.00;99.90;;;;;;5057379;28;20183;-40
2022/08/29 04:51:04;;;;;;;4.00;2.20;;;12.00;99.90;;;;;;5057255;28;20204;-40
2022/08/29 04:53:30;;;;;;;4.60;2.57;;;12.10;99.90;;;;;;5056877;28;20536;-38
2022/08/29 04:55:59;;;;;;;5.90;2.30;;;12.10;99.90;;;;;;5056312;28;20699;-40
2022/08/29 04:58:25;;;;;;;7.43;2.13;;;12.10;99.90;;;;;;5056796;28;20542;-38
2022/08/29 05:00:51;;;;;;;5.93;2.77;;;12.10;99.90;;;;;;5056240;28;20196;-39
2022/08/29 05:03:18;;;;;;;6.77;2.67;;;12.10;99.90;;;;;;5056958;28;20690;-41
2022/08/29 05:05:44;;;;;;;3.97;2.13;;;12.10;99.90;;;;;;5056027;28;20211;-41
2022/08/29 05:08:10;;;;;;;4.00;2.10;;;12.00;99.90;;;;;;5056107;28;20215;-40
2022/08/29 05:10:37;;;;;;;4.47;2.40;;;12.10;99.90;;;;;;5054715;28;20298;-41
2022/08/29 05:13:03;;;;;;;10.20;2.90;;;12.10;99.90;;;;;;5056092;28;20584;-41
2022/08/29 05:15:30;;;;;;;5.17;2.23;;;12.10;99.90;;;;;;5037793;28;20270;-41
2022/08/29 05:17:55;;;;;;;5.87;2.67;;;12.10;99.90;;;;;;5038041;28;20644;-41
2022/08/29 05:20:21;;;;;;;3.57;2.20;;;12.10;99.90;;;;;;5055686;28;20199;-41
2022/08/29 05:22:47;;;;;;;4.20;2.17;;;12.10;99.90;;;;;;5055952;28;20202;-39
2022/08/29 05:25:13;;;;;;;7.17;2.93;;;12.20;99.90;;;;;;5055697;28;20207;-40
2022/08/29 05:27:40;;;;;;;3.33;2.23;;;12.20;99.90;;;;;;5037832;28;20181;-39
2022/08/29 05:30:06;;;;;;;9.37;3.00;;;12.20;99.90;;;;;;5056044;28;20179;-41
2022/08/29 05:32:32;;;;;;;6.03;2.43;;;12.20;99.90;;;;;;5056047;28;20293;-40
2022/08/29 05:34:58;;;;;;;5.87;2.57;;;12.20;99.90;;;;;;5055658;28;20301;-40
2022/08/29 05:37:25;;;;;;;10.57;2.50;;;12.30;99.90;;;;;;5055649;28;20259;-40
2022/08/29 05:39:50;;;;;;;9.47;2.87;;;12.30;99.90;;;;;;5055368;28;20531;-38
2022/08/29 05:42:18;;;;;;;9.57;2.60;;;12.30;99.90;;;;;;5055476;28;20199;-38
2022/08/29 05:44:44;;;;;;;4.20;2.33;;;12.40;99.90;;;;;;5060668;28;20172;-43
2022/08/29 05:47:12;;;;;;;6.17;2.17;;;12.40;99.90;;;;;;5063713;28;20175;-43
2022/08/29 05:49:41;;;;;;;5.90;2.30;;;12.50;99.90;;;;;;5063362;28;20172;-43
2022/08/29 05:52:07;;;;;;;6.33;2.67;;;12.50;99.90;;;;;;5044613;28;20690;-43
2022/08/29 05:54:36;;;;;;;9.80;2.70;;;12.60;99.90;;;;;;5063281;28;20183;-44
2022/08/29 05:57:03;;;;;;;9.00;2.30;;;12.60;99.90;;;;;;5046373;28;20640;-44
2022/08/29 05:59:28;;;;;;;5.90;2.20;;;12.70;99.90;;;;;;5062797;28;20763;-43
2022/08/29 06:01:54;;;;;;;6.77;2.77;;;12.70;99.90;;;;;;5063442;28;20236;-44
2022/08/29 06:04:20;;;;;;;9.50;2.93;;;12.90;99.90;;;;;;5063483;28;20149;-44
2022/08/29 06:06:45;;;;;;;7.33;2.90;;;12.90;99.90;;;;;;5044909;28;20235;-43
2022/08/29 06:09:12;;;;;;;8.03;2.57;;;13.00;99.90;;;;;;5063133;28;20233;-43
2022/08/29 06:11:37;;;;;;;9.80;3.10;;;13.10;99.90;;;;;;5062979;28;20597;-44
2022/08/29 06:14:03;;;;;;;8.57;2.60;;;13.10;99.90;;;;;;5062913;28;20187;-42
2022/08/29 06:16:29;;;;;;;5.70;3.10;;;13.10;99.90;;;;;;5062840;28;20231;-43
2022/08/29 06:18:55;;;;;;;7.80;3.03;;;13.20;99.90;;;;;;5063093;28;20180;-43
2022/08/29 06:21:21;;;;;;;5.93;2.83;;;13.30;99.90;;;;;;5062074;28;20211;-43
2022/08/29 06:23:47;;;;;;;5.70;2.70;;;13.40;99.90;;;;;;5062391;28;20185;-44
2022/08/29 06:26:13;;;;;;;6.77;2.77;;;13.40;99.90;;;;;;5062218;28;20260;-43
2022/08/29 06:28:44;;;;;;;8.27;3.40;;;13.50;99.90;;;;;;5044383;28;20184;-42
2022/08/29 06:31:20;;;;;;;7.27;3.23;;;13.50;99.90;;;;;;5063026;28;20291;-43
2022/08/29 06:33:48;;;;;;;10.17;3.67;;;13.60;99.90;;;;;;5062898;28;20633;-43
2022/08/29 06:36:14;;;;;;;7.73;3.83;;;13.60;99.90;;;;;;5044501;28;20274;-44
2022/08/29 06:38:40;;;;;;;13.77;4.17;;;13.60;99.90;;;;;;5062036;28;20226;-42
2022/08/29 06:41:09;;;;;;;8.00;3.63;;;13.70;99.90;;;;;;5062287;28;20273;-43
2022/08/29 06:43:35;;;;;;;9.23;3.60;;;13.80;99.90;;;;;;5062223;28;20184;-44
2022/08/29 06:46:01;;;;;;;12.63;4.23;;;13.80;99.90;;;;;;5043418;28;20212;-44
2022/08/29 06:48:26;;;;;;;12.03;3.67;;;13.90;99.90;;;;;;5061519;28;20172;-44
2022/08/29 06:50:52;;;;;;;9.07;3.80;;;14.00;99.90;;;;;;5062033;28;20626;-43
2022/08/29 06:53:19;;;;;;;6.17;3.03;;;14.10;99.90;;;;;;5060910;28;20199;-43
2022/08/29 06:55:45;;;;;;;11.37;3.70;;;14.20;99.90;;;;;;5060670;28;20184;-44
2022/08/29 06:58:11;;;;;;;14.90;3.70;;;14.40;99.90;;;;;;5060378;28;20191;-44
2022/08/29 07:00:39;;;;;;;9.70;3.30;;;14.40;99.90;;;;;;5060365;28;20187;-44
2022/08/29 07:03:05;;;;;;;8.10;2.87;;;14.50;99.90;;;;;;5060085;28;20552;-44
2022/08/29 07:05:31;;;;;;;6.13;2.67;;;14.60;99.90;;;;;;5059375;28;20192;-43
2022/08/29 07:07:57;;;;;;;6.17;3.53;;;14.70;99.90;;;;;;5059229;28;20175;-44
2022/08/29 07:10:22;;;;;;;9.67;3.20;;;14.80;99.90;;;;;;5059493;28;20176;-44
2022/08/29 07:12:48;;;;;;;6.67;2.53;;;14.90;99.90;;;;;;5058619;28;20545;-43
2022/08/29 07:15:14;;;;;;;9.80;2.90;;;15.00;99.90;;;;;;5058600;28;20278;-43
2022/08/29 07:17:40;;;;;;;14.27;3.53;;;15.20;99.90;;;;;;5058709;28;20168;-45
2022/08/29 07:20:07;;;;;;;9.17;3.17;;;15.40;99.90;;;;;;5058329;28;20591;-45
2022/08/29 07:22:34;;;;;;;9.60;2.80;;;15.60;99.90;;;;;;5059231;28;20287;-44
2022/08/29 07:25:00;;;;;;;8.30;2.33;;;15.70;99.90;;;;;;5057978;28;20402;-44
2022/08/29 07:27:25;;;;;;;7.27;3.20;;;15.80;99.90;;;;;;5059373;28;20597;-44
2022/08/29 07:29:51;;;;;;;10.80;2.87;;;15.90;99.90;;;;;;5058647;28;20232;-44
2022/08/29 07:32:17;;;;;;;10.00;2.77;;;16.00;99.90;;;;;;5058145;28;20538;-42
2022/08/29 07:34:42;;;;;;;9.20;3.03;;;16.30;99.90;;;;;;5058896;28;20520;-44
2022/08/29 07:37:09;;;;;;;11.10;3.23;;;16.50;99.90;;;;;;5059705;28;20180;-44
2022/08/29 07:39:36;;;;;;;17.33;3.00;;;16.60;99.90;;;;;;5060583;28;20168;-45
2022/08/29 07:42:03;;;;;;;14.30;2.50;;;16.70;99.90;;;;;;5060045;28;20192;-44
2022/08/29 07:44:29;;;;;;;11.37;2.73;;;16.80;99.90;;;;;;5059925;28;20180;-44
2022/08/29 07:46:57;;;;;;;8.27;2.10;;;16.80;99.90;;;;;;5059376;28;20208;-44
2022/08/29 07:49:27;;;;;;;9.47;2.47;;;16.90;99.90;;;;;;5059611;28;20172;-44
2022/08/29 07:51:54;;;;;;;8.40;2.47;;;17.10;99.90;;;;;;5059223;28;20283;-45
2022/08/29 07:54:21;;;;;;;8.93;2.47;;;17.30;99.90;;;;;;5059200;28;20656;-45
2022/08/29 07:56:49;;;;;;;10.70;2.60;;;17.50;99.90;;;;;;5040280;28;20219;-45
2022/08/29 07:59:17;;;;;;;10.20;2.63;;;17.60;99.90;;;;;;5057760;28;20250;-45
2022/08/29 08:01:43;;;;;;;9.77;2.00;;;17.70;99.90;;;;;;5058080;28;20196;-45
2022/08/29 08:04:09;;;;;;;9.53;2.23;;;17.80;99.90;;;;;;5042112;28;20539;-43
2022/08/29 08:06:36;;;;;;;11.27;2.27;;;17.80;99.90;;;;;;5041333;28;20204;-44
2022/08/29 08:09:04;;;;;;;9.03;2.13;;;17.90;99.90;;;;;;5057575;28;20204;-45
2022/08/29 08:11:30;;;;;;;7.67;1.97;;;17.90;99.90;;;;;;5058530;28;20196;-45
2022/08/29 08:13:56;;;;;;;5.70;1.70;;;17.80;99.90;;;;;;5058558;28;20207;-46
2022/08/29 08:16:25;;;;;;;7.73;2.47;;;17.80;99.90;;;;;;5059140;28;20199;-44
2022/08/29 08:18:51;;;;;;;5.57;2.30;;;17.90;99.90;;;;;;5042119;28;20207;-45
2022/08/29 08:21:17;;;;;;;5.70;2.10;;;18.00;99.90;;;;;;5042083;28;20290;-43
2022/08/29 08:23:43;;;;;;;9.03;2.00;;;18.20;99.90;;;;;;5060868;28;20212;-44
2022/08/29 08:26:11;;;;;;;12.13;2.20;;;18.40;99.90;;;;;;5060459;28;20199;-45
2022/08/29 08:28:37;;;;;;;10.67;2.10;;;18.50;99.90;;;;;;5052886;28;20173;-39
2022/08/29 08:31:05;;;;;;;6.20;1.93;;;18.50;99.90;;;;;;5052980;28;20587;-41
2022/08/29 08:33:32;;;;;;;6.43;1.80;;;18.50;99.90;;;;;;5052798;28;20173;-39
2022/08/29 08:35:57;;;;;;;7.37;2.17;;;18.50;99.90;;;;;;5052985;28;20180;-38
2022/08/29 08:38:23;;;;;;;8.27;2.13;;;18.50;99.90;;;;;;5052671;28;20252;-38
2022/08/29 08:41:16;;;;;;;8.47;1.80;;;18.50;99.90;;;;;;5052638;28;20269;-38
2022/08/29 08:43:52;;;;;;;3.70;1.60;;;18.40;99.90;;;;;;5023653;28;20195;-38
2022/08/29 08:46:29;;;;;;;6.47;1.80;;;18.50;99.90;;;;;;5056621;28;20188;-41
2022/08/29 08:48:57;;;;;;;4.33;1.90;;;18.60;99.90;;;;;;5056629;28;20157;-41
2022/08/29 08:51:28;;;;;;;7.73;2.43;;;18.70;99.90;;;;;;5056358;28;20242;-37
2022/08/29 08:53:58;;;;;;;5.23;2.30;;;18.80;99.90;;;;;;5056570;28;20168;-38
2022/08/29 08:56:45;;;;;;;8.20;2.30;;;18.80;99.90;;;;;;5056456;28;20271;-42
2022/08/29 08:59:17;;;;;;;6.00;2.07;;;18.90;99.90;;;;;;5056158;28;20165;-40
2022/08/29 09:02:28;;;;;;;6.10;1.90;;;19.00;99.90;;;;;;5056036;28;20200;-41
2022/08/29 09:05:22;;;;;;;7.60;2.10;;;19.30;99.90;;;;;;5058601;28;20172;-38
2022/08/29 09:08:00;;;;;;;5.83;2.00;;;19.60;99.90;;;;;;5021992;28;20283;-39
2022/08/29 09:10:37;;;;;;;6.17;2.33;;;19.70;99.90;;;;;;5038128;28;20199;-40
2022/08/29 09:13:40;;;;;;;7.20;2.00;;;19.70;99.90;;;;;;5056773;28;20504;-40
2022/08/29 09:16:22;;;;;;;10.43;2.00;;;19.60;99.90;;;;;;5055923;28;20241;-39
2022/08/29 09:18:47;;;;;;;8.63;1.73;;;19.50;99.90;;;;;;5038040;28;20183;-41
2022/08/29 09:21:19;;;;;;;7.27;2.23;;;19.60;99.90;;;;;;5056025;28;20655;-40
2022/08/29 09:23:46;;;;;;;4.13;1.63;;;19.70;99.90;;;;;;5055965;28;20625;-41
2022/08/29 09:26:15;;;;;;;6.53;1.80;;;19.80;99.90;;;;;;5055789;28;20203;-41
2022/08/29 09:28:41;;;;;;;5.67;1.87;;;19.80;99.90;;;;;;5055571;28;20229;-40
2022/08/29 09:31:18;;;;;;;5.70;1.80;;;19.90;99.90;;;;;;5037656;28;20195;-38
2022/08/29 09:33:51;;;;;;;7.93;2.00;;;20.00;99.90;;;;;;5055552;28;20195;-40
2022/08/29 09:36:47;;;;;;;2.60;1.70;;;20.10;99.90;;;;;;5055747;28;20251;-41
2022/08/29 09:39:27;;;;;;;3.90;1.90;;;20.20;99.90;;;;;;5055766;28;20163;-38
2022/08/29 09:41:54;;;;;;;2.60;1.50;;;20.20;99.90;;;;;;5055560;28;20203;-41
2022/08/29 09:44:40;;;;;;;8.13;1.60;;;20.20;99.90;;;;;;5055338;28;20521;-37
2022/08/29 09:47:13;;;;;;;4.97;1.50;;;20.30;99.90;;;;;;5055283;28;20297;-39
2022/08/29 09:49:41;;;;;;;4.03;1.73;;;20.50;99.90;;;;;;5037489;28;20333;-38
2022/08/29 09:52:13;;;;;;;4.67;1.70;;;20.60;99.90;;;;;;5055272;28;20230;-40
2022/08/29 09:54:40;;;;;;;3.80;2.17;;;20.70;99.90;;;;;;5055022;28;20188;-40
2022/08/29 09:57:09;;;;;;;6.70;1.80;;;20.60;99.90;;;;;;5054339;28;20184;-40
2022/08/29 09:59:44;;;;;;;4.40;1.47;;;20.60;99.90;;;;;;5055015;28;20640;-40
2022/08/29 10:02:18;;;;;;;8.70;1.70;;;20.50;99.90;;;;;;5054936;28;20199;-40
2022/08/29 10:04:47;;;;;;;5.83;1.80;;;20.50;99.90;;;;;;5055142;28;20250;-40
2022/08/29 10:07:32;;;;;;;5.40;1.70;;;20.70;99.90;;;;;;5037104;28;20172;-40
2022/08/29 10:10:11;;;;;;;4.67;1.80;;;20.80;99.90;;;;;;5055147;28;20217;-40
2022/08/29 10:13:10;;;;;;;6.63;2.03;;;20.90;99.90;;;;;;5055745;28;20200;-38
2022/08/29 10:15:52;;;;;;;4.50;1.67;;;20.90;99.90;;;;;;5054775;28;20192;-39
2022/08/29 10:18:37;;;;;;;3.53;1.70;;;21.00;99.90;;;;;;5054902;28;20255;-40
2022/08/29 10:21:23;;;;;;;4.60;2.00;;;21.30;99.90;;;;;;5055482;28;20567;-40
2022/08/29 10:23:48;;;;;;;4.80;1.70;;;21.40;99.90;;;;;;5054868;28;20168;-41
2022/08/29 10:26:42;;;;;;;8.33;2.33;;;21.70;99.90;;;;;;5054537;28;20558;-37
2022/08/29 10:29:33;;;;;;;4.60;1.50;;;21.70;99.90;;;;;;5054810;28;20187;-45
2022/08/29 10:32:25;;;;;;;3.67;1.87;;;21.80;99.90;;;;;;5054321;28;20692;-45
2022/08/29 10:35:10;;;;;;;8.27;1.67;;;21.80;99.90;;;;;;5036490;28;20178;-43
2022/08/29 10:38:12;;;;;;;9.93;2.13;;;21.70;99.90;;;;;;5054439;28;20152;-44
2022/08/29 10:40:46;;;;;;;6.13;1.97;;;21.70;99.90;;;;;;5054454;28;20166;-45
2022/08/29 10:43:11;;;;;;;3.10;1.63;;;21.90;99.90;;;;;;5054349;28;20230;-44
2022/08/29 10:45:51;;;;;;;4.90;1.90;;;22.00;99.90;;;;;;5054145;28;20331;-45
2022/08/29 10:48:29;;;;;;;6.97;1.47;;;22.00;99.90;;;;;;5054404;28;20250;-44
2022/08/29 10:51:13;;;;;;;4.67;1.93;;;22.00;99.90;;;;;;5053994;28;20275;-43
2022/08/29 10:53:41;;;;;;;3.57;1.93;;;22.00;99.90;;;;;;5036331;28;20260;-43
2022/08/29 10:56:21;;;;;;;6.63;2.37;;;22.10;99.90;;;;;;5053935;28;20200;-44
2022/08/29 10:59:07;;;;;;;2.23;1.60;;;22.10;99.90;;;;;;5054254;28;20160;-43
2022/08/29 11:01:42;;;;;;;6.43;2.10;;;22.10;99.90;;;;;;5054030;28;20566;-43
2022/08/29 11:04:26;;;;;;;5.13;2.20;;;22.20;99.90;;;;;;5054192;28;20171;-43
2022/08/29 11:07:09;;;;;;;5.60;1.80;;;22.50;99.90;;;;;;5053814;28;20204;-44
2022/08/29 11:09:43;;;;;;;8.00;1.80;;;22.50;99.90;;;;;;5054023;28;20652;-43
2022/08/29 11:12:29;;;;;;;3.20;1.40;;;22.60;99.90;;;;;;5053711;28;20272;-44
2022/08/29 11:15:33;;;;;;;5.33;2.30;;;22.80;99.90;;;;;;5053517;28;20160;-45
2022/08/29 11:18:32;;;;;;;7.20;1.97;;;22.70;99.90;;;;;;5013473;28;20192;-45
2022/08/29 11:21:25;;;;;;;3.50;1.57;;;22.60;99.90;;;;;;5038688;28;20771;-43
2022/08/29 11:23:51;;;;;;;2.37;1.70;;;22.70;99.90;;;;;;5053816;28;20164;-42
2022/08/29 11:26:33;;;;;;;5.97;1.83;;;22.80;99.90;;;;;;5053693;28;20196;-45
2022/08/29 11:29:24;;;;;;;2.60;1.67;;;22.70;99.90;;;;;;5053757;28;20188;-44
2022/08/29 11:32:06;;;;;;;3.73;2.10;;;22.50;99.90;;;;;;5053308;28;20196;-44
2022/08/29 11:34:44;;;;;;;4.27;1.80;;;22.30;99.90;;;;;;5053862;28;20164;-44
2022/08/29 11:37:25;;;;;;;5.33;2.00;;;22.20;99.90;;;;;;5053702;28;20179;-45
2022/08/29 11:40:21;;;;;;;7.40;2.00;;;22.20;99.90;;;;;;5053492;28;20156;-40
2022/08/29 11:42:48;;;;;;;8.40;2.10;;;22.20;99.90;;;;;;5054043;28;20204;-41
2022/08/29 11:45:25;;;;;;;3.83;2.10;;;22.10;99.90;;;;;;5053244;28;20192;-41
2022/08/29 11:48:01;;;;;;;4.10;1.90;;;22.10;99.90;;;;;;5053562;28;20164;-40
2022/08/29 11:50:35;;;;;;;4.13;1.90;;;22.20;99.90;;;;;;5054079;28;20179;-39
2022/08/29 11:53:32;;;;;;;6.53;2.90;;;22.30;99.90;;;;;;5053606;28;20568;-41
2022/08/29 11:56:12;;;;;;;2.60;1.90;;;22.30;99.90;;;;;;5053533;28;20171;-40
2022/08/29 11:58:42;;;;;;;5.40;2.10;;;22.30;99.90;;;;;;5053518;28;20215;-40
2022/08/29 12:01:33;;;;;;;7.90;2.20;;;22.30;99.90;;;;;;5053576;28;20211;-41
2022/08/29 12:04:06;;;;;;;3.70;1.97;;;22.40;99.90;;;;;;5052731;28;20184;-41
2022/08/29 12:06:53;;;;;;;2.90;1.93;;;22.40;99.90;;;;;;5053474;28;20271;-40
2022/08/29 12:09:46;;;;;;;6.57;2.33;;;22.60;99.90;;;;;;5053594;28;20552;-41
2022/08/29 12:12:17;;;;;;;5.73;2.00;;;22.70;99.90;;;;;;5053353;28;20586;-40
2022/08/29 12:14:49;;;;;;;5.00;2.27;;;22.80;99.90;;;;;;5053630;28;20161;-39
2022/08/29 12:17:17;;;;;;;3.13;1.90;;;22.80;99.90;;;;;;5053077;28;20171;-39
2022/08/29 12:19:47;;;;;;;5.00;2.63;;;22.80;99.90;;;;;;5055796;28;20180;-41
2022/08/29 12:22:50;;;;;;;3.83;2.17;;;22.60;99.90;;;;;;5057059;28;20196;-39
2022/08/29 12:25:27;;;;;;;6.03;2.20;;;22.60;99.90;;;;;;5057216;28;20203;-39
2022/08/29 12:28:00;;;;;;;5.47;2.30;;;22.50;99.90;;;;;;5057477;28;20214;-38
2022/08/29 12:30:27;;;;;;;3.33;1.83;;;22.50;99.90;;;;;;5056780;28;20260;-40
2022/08/29 12:33:08;;;;;;;5.47;2.13;;;22.50;99.90;;;;;;5056704;28;20172;-40
2022/08/29 12:35:47;;;;;;;4.50;2.20;;;22.50;99.90;;;;;;5056852;28;20200;-40
2022/08/29 12:38:35;;;;;;;4.77;2.10;;;22.60;99.90;;;;;;5056524;28;20165;-41
2022/08/29 12:41:25;;;;;;;5.90;2.50;;;22.70;99.90;;;;;;5018617;28;20715;-41
2022/08/29 12:43:55;;;;;;;4.43;2.00;;;22.70;99.90;;;;;;5036643;28;20512;-41
2022/08/29 12:46:25;;;;;;;5.83;2.03;;;22.70;99.90;;;;;;5036634;28;20227;-41
2022/08/29 12:49:20;;;;;;;3.80;1.80;;;22.80;99.90;;;;;;5036025;28;20537;-38
2022/08/29 12:51:55;;;;;;;3.73;2.07;;;22.90;99.90;;;;;;5036679;28;20197;-42
2022/08/29 12:54:40;;;;;;;4.37;2.10;;;23.10;99.90;;;;;;5037056;28;20168;-41
2022/08/29 12:57:18;;;;;;;4.07;1.90;;;23.30;99.90;;;;;;5037235;28;20207;-40
2022/08/29 12:59:49;;;;;;;5.83;2.13;;;23.50;99.90;;;;;;5037658;28;20165;-41
2022/08/29 13:02:33;;;;;;;4.63;1.83;;;23.60;99.90;;;;;;5036839;28;20200;-42
2022/08/29 13:05:01;;;;;;;4.83;2.10;;;23.60;99.90;;;;;;5018363;28;20669;-42
2022/08/29 13:07:28;;;;;;;8.20;1.80;;;23.60;99.90;;;;;;5036100;28;20540;-42
2022/08/29 13:09:59;;;;;;;5.33;2.10;;;23.60;99.90;;;;;;5036262;28;20184;-42